sensor_id;sensor_type;location;lat;lon;timestamp;pressure;altitude;pressure_sealevel;temperature;humidity
22862;BME280;11598;50.652;6.172;2023-05-24T00:07:49;97137.75;;;5.17;90.85
22862;BME280;11598;50.652;6.172;2023-05-24T00:17:50;97153.06;;;4.99;91.36
22862;BME280;11598;50.652;6.172;2023-05-24T00:27:50;97146.75;;;4.86;92.01
22862;BME280;11598;50.652;6.172;2023-05-24T00:37:51;97141.13;;;4.76;92.20
22862;BME280;11598;50.652;6.172;2023-05-24T00:47:51;97141.50;;;4.67;92.46
22862;BME280;11598;50.652;6.172;2023-05-24T00:57:52;97130.59;;;4.60;93.08
22862;BME280;11598;50.652;6.172;2023-05-24T01:18:46;97125.44;;;4.60;94.00
22862;BME280;11598;50.652;6.172;2023-05-24T01:28:48;97123.41;;;4.47;94.58
22862;BME280;11598;50.652;6.172;2023-05-24T01:38:49;97132.63;;;4.30;95.04
22862;BME280;11598;50.652;6.172;2023-05-24T01:49:00;97118.69;;;4.14;95.71
22862;BME280;11598;50.652;6.172;2023-05-24T01:59:03;97123.06;;;4.12;96.42
22862;BME280;11598;50.652;6.172;2023-05-24T02:09:04;97117.06;;;4.11;96.38
22862;BME280;11598;50.652;6.172;2023-05-24T02:19:04;97115.13;;;3.94;97.02
22862;BME280;11598;50.652;6.172;2023-05-24T02:29:05;97108.22;;;3.73;98.03
22862;BME280;11598;50.652;6.172;2023-05-24T02:39:07;97097.78;;;3.54;98.73
22862;BME280;11598;50.652;6.172;2023-05-24T02:49:07;97083.81;;;3.37;99.24
22862;BME280;11598;50.652;6.172;2023-05-24T02:59:09;97079.31;;;3.19;100.00
22862;BME280;11598;50.652;6.172;2023-05-24T03:09:10;97081.41;;;3.08;100.00
22862;BME280;11598;50.652;6.172;2023-05-24T03:19:10;97079.59;;;2.86;100.00
22862;BME280;11598;50.652;6.172;2023-05-24T03:29:11;97082.00;;;2.66;100.00
22862;BME280;11598;50.652;6.172;2023-05-24T07:31:14;97175.44;;;10.39;73.30
22862;BME280;11598;50.652;6.172;2023-05-24T07:41:15;97181.41;;;10.95;68.58
22862;BME280;11598;50.652;6.172;2023-05-24T07:51:16;97195.66;;;11.95;65.31
22862;BME280;11598;50.652;6.172;2023-05-24T08:01:16;97176.88;;;12.29;63.95
22862;BME280;11598;50.652;6.172;2023-05-24T08:11:19;97195.56;;;12.59;61.76
22862;BME280;11598;50.652;6.172;2023-05-24T08:21:20;97190.03;;;11.89;64.03
22862;BME280;11598;50.652;6.172;2023-05-24T08:31:21;97193.03;;;12.34;61.65
22862;BME280;11598;50.652;6.172;2023-05-24T08:41:21;97198.78;;;12.00;63.15
22862;BME280;11598;50.652;6.172;2023-05-24T08:51:23;97204.47;;;11.67;62.92
22862;BME280;11598;50.652;6.172;2023-05-24T09:01:23;97193.28;;;11.27;64.69
22862;BME280;11598;50.652;6.172;2023-05-24T09:11:24;97189.34;;;11.34;65.66
22862;BME280;11598;50.652;6.172;2023-05-24T09:21:26;97186.16;;;10.89;64.50
22862;BME280;11598;50.652;6.172;2023-05-24T09:31:34;97192.25;;;10.75;67.00
22862;BME280;11598;50.652;6.172;2023-05-24T09:41:35;97195.72;;;10.61;66.06
22862;BME280;11598;50.652;6.172;2023-05-24T09:51:36;97188.88;;;10.46;66.09
22862;BME280;11598;50.652;6.172;2023-05-24T10:01:38;97173.41;;;10.44;66.70
22862;BME280;11598;50.652;6.172;2023-05-24T10:11:39;97175.19;;;10.71;63.84
22862;BME280;11598;50.652;6.172;2023-05-24T10:21:41;97165.72;;;10.97;65.21
22862;BME280;11598;50.652;6.172;2023-05-24T10:31:42;97174.25;;;10.72;66.63
22862;BME280;11598;50.652;6.172;2023-05-24T10:41:44;97167.56;;;10.95;65.31
22862;BME280;11598;50.652;6.172;2023-05-24T10:51:44;97182.88;;;11.27;65.59
22862;BME280;11598;50.652;6.172;2023-05-24T11:01:53;97174.56;;;11.47;64.51
22862;BME280;11598;50.652;6.172;2023-05-24T11:12:05;97182.50;;;11.58;64.53
22862;BME280;11598;50.652;6.172;2023-05-24T11:22:09;97162.31;;;11.62;64.48
22862;BME280;11598;50.652;6.172;2023-05-24T11:32:14;97161.56;;;12.24;62.84
22862;BME280;11598;50.652;6.172;2023-05-24T11:42:14;97149.53;;;11.97;62.97
22862;BME280;11598;50.652;6.172;2023-05-24T11:52:15;97155.56;;;11.59;64.40
22862;BME280;11598;50.652;6.172;2023-05-24T12:02:16;97146.59;;;11.51;65.46
22862;BME280;11598;50.652;6.172;2023-05-24T12:12:17;97151.56;;;11.54;65.75
22862;BME280;11598;50.652;6.172;2023-05-24T12:22:17;97157.16;;;11.35;65.77
22862;BME280;11598;50.652;6.172;2023-05-24T12:32:18;97156.28;;;11.09;68.22
22862;BME280;11598;50.652;6.172;2023-05-24T12:42:18;97156.81;;;11.14;67.11
22862;BME280;11598;50.652;6.172;2023-05-24T12:52:22;97155.31;;;11.50;66.51
22862;BME280;11598;50.652;6.172;2023-05-24T13:02:23;97152.09;;;11.72;66.79
22862;BME280;11598;50.652;6.172;2023-05-24T13:12:23;97147.41;;;12.15;66.68
22862;BME280;11598;50.652;6.172;2023-05-24T13:22:24;97135.69;;;12.46;65.10
22862;BME280;11598;50.652;6.172;2023-05-24T13:43:21;97121.72;;;13.07;63.10
22862;BME280;11598;50.652;6.172;2023-05-24T13:53:22;97119.34;;;12.32;65.21
22862;BME280;11598;50.652;6.172;2023-05-24T14:03:22;97123.28;;;11.88;66.09
22862;BME280;11598;50.652;6.172;2023-05-24T14:13:24;97128.69;;;11.97;65.42
22862;BME280;11598;50.652;6.172;2023-05-24T14:23:26;97122.25;;;11.90;65.99
22862;BME280;11598;50.652;6.172;2023-05-24T14:33:26;97122.63;;;11.84;64.97
22862;BME280;11598;50.652;6.172;2023-05-24T14:43:27;97125.97;;;11.48;65.95
22862;BME280;11598;50.652;6.172;2023-05-24T14:53:27;97123.28;;;11.62;66.44
22862;BME280;11598;50.652;6.172;2023-05-24T15:03:48;97123.88;;;11.40;67.68
22862;BME280;11598;50.652;6.172;2023-05-24T15:13:49;97112.25;;;11.71;67.69
22862;BME280;11598;50.652;6.172;2023-05-24T15:23:54;97121.34;;;12.15;66.23
22862;BME280;11598;50.652;6.172;2023-05-24T15:33:54;97117.97;;;12.02;66.66
22862;BME280;11598;50.652;6.172;2023-05-24T15:43:55;97102.22;;;12.40;64.73
22862;BME280;11598;50.652;6.172;2023-05-24T15:53:55;97097.84;;;12.41;64.82
22862;BME280;11598;50.652;6.172;2023-05-24T16:03:56;97108.81;;;12.33;64.37
22862;BME280;11598;50.652;6.172;2023-05-24T16:13:56;97093.47;;;12.04;64.06
22862;BME280;11598;50.652;6.172;2023-05-24T16:23:57;97096.69;;;11.82;64.01
22862;BME280;11598;50.652;6.172;2023-05-24T16:33:58;97095.97;;;11.68;65.36
22862;BME280;11598;50.652;6.172;2023-05-24T16:43:58;97088.19;;;11.68;66.07
22862;BME280;11598;50.652;6.172;2023-05-24T16:53:58;97086.81;;;11.49;66.46
22862;BME280;11598;50.652;6.172;2023-05-24T17:03:59;97084.03;;;11.27;66.31
22862;BME280;11598;50.652;6.172;2023-05-24T17:13:59;97086.63;;;11.27;67.27
22862;BME280;11598;50.652;6.172;2023-05-24T17:24:00;97086.28;;;11.18;67.45
22862;BME280;11598;50.652;6.172;2023-05-24T17:34:00;97091.81;;;11.14;67.86
22862;BME280;11598;50.652;6.172;2023-05-24T17:44:01;97098.25;;;11.21;68.85
22862;BME280;11598;50.652;6.172;2023-05-24T17:54:01;97102.28;;;10.99;69.15
22862;BME280;11598;50.652;6.172;2023-05-24T18:04:01;97102.16;;;10.88;69.89
22862;BME280;11598;50.652;6.172;2023-05-24T18:14:02;97102.88;;;10.77;70.78
22862;BME280;11598;50.652;6.172;2023-05-24T18:24:02;97115.22;;;10.74;71.43
22862;BME280;11598;50.652;6.172;2023-05-24T18:34:03;97105.41;;;10.65;72.77
22862;BME280;11598;50.652;6.172;2023-05-24T18:44:03;97112.03;;;10.56;72.41
22862;BME280;11598;50.652;6.172;2023-05-24T18:54:04;97117.81;;;10.47;71.65
22862;BME280;11598;50.652;6.172;2023-05-24T19:04:04;97114.31;;;10.33;72.23
22862;BME280;11598;50.652;6.172;2023-05-24T19:14:05;97108.47;;;10.15;73.37
22862;BME280;11598;50.652;6.172;2023-05-24T19:24:05;97130.09;;;10.02;73.85
22862;BME280;11598;50.652;6.172;2023-05-24T19:34:06;97126.97;;;9.82;74.69
22862;BME280;11598;50.652;6.172;2023-05-24T19:44:06;97144.28;;;9.67;75.38
22862;BME280;11598;50.652;6.172;2023-05-24T19:54:07;97149.19;;;9.58;75.79
22862;BME280;11598;50.652;6.172;2023-05-24T20:04:09;97161.13;;;9.46;76.82
22862;BME280;11598;50.652;6.172;2023-05-24T20:14:10;97161.00;;;9.33;77.18
22862;BME280;11598;50.652;6.172;2023-05-24T20:24:10;97170.59;;;9.17;78.35
22862;BME280;11598;50.652;6.172;2023-05-24T20:34:11;97181.00;;;9.01;79.41
22862;BME280;11598;50.652;6.172;2023-05-24T20:44:11;97189.56;;;8.87;80.67
22862;BME280;11598;50.652;6.172;2023-05-24T20:54:12;97187.88;;;8.70;82.00
22862;BME280;11598;50.652;6.172;2023-05-24T21:04:12;97194.41;;;8.61;81.87
22862;BME280;11598;50.652;6.172;2023-05-24T21:14:13;97192.66;;;8.46;82.42
22862;BME280;11598;50.652;6.172;2023-05-24T21:24:13;97197.81;;;8.30;83.21
22862;BME280;11598;50.652;6.172;2023-05-24T21:34:15;97194.59;;;8.09;84.23
22862;BME280;11598;50.652;6.172;2023-05-24T21:44:15;97199.72;;;7.93;85.28
22862;BME280;11598;50.652;6.172;2023-05-24T21:54:16;97208.59;;;7.54;87.73
22862;BME280;11598;50.652;6.172;2023-05-24T22:04:18;97214.47;;;7.23;89.11
22862;BME280;11598;50.652;6.172;2023-05-24T22:14:19;97214.72;;;6.99;90.51
22862;BME280;11598;50.652;6.172;2023-05-24T22:24:20;97210.88;;;6.72;92.01
22862;BME280;11598;50.652;6.172;2023-05-24T22:34:27;97210.72;;;6.56;93.28
22862;BME280;11598;50.652;6.172;2023-05-24T22:44:27;97211.94;;;6.30;94.16
22862;BME280;11598;50.652;6.172;2023-05-24T22:54:28;97212.84;;;6.10;95.38
22862;BME280;11598;50.652;6.172;2023-05-24T23:04:28;97212.41;;;6.00;96.16
22862;BME280;11598;50.652;6.172;2023-05-24T23:14:29;97218.00;;;5.89;96.84
22862;BME280;11598;50.652;6.172;2023-05-24T23:24:29;97223.69;;;5.98;97.30
22862;BME280;11598;50.652;6.172;2023-05-24T23:34:30;97215.50;;;6.27;98.13
22862;BME280;11598;50.652;6.172;2023-05-24T23:44:32;97212.84;;;6.48;98.25
22862;BME280;11598;50.652;6.172;2023-05-24T23:54:33;97221.31;;;6.51;98.44
